createdAt,value
2022-10-21T07:05:19.260Z,5.00
2022-10-21T07:07:47.262Z,4.83
2022-10-21T07:10:15.290Z,5.97
2022-10-21T07:12:43.361Z,6.10
2022-10-21T07:15:12.175Z,6.43
2022-10-21T07:17:40.508Z,6.70
2022-10-21T07:20:10.672Z,7.83
2022-10-21T07:22:39.991Z,8.13
2022-10-21T07:25:09.334Z,9.23
2022-10-21T07:27:37.651Z,8.47
2022-10-21T07:30:06.510Z,8.63
2022-10-21T07:32:34.462Z,7.93
2022-10-21T07:35:02.593Z,6.43
2022-10-21T07:37:30.576Z,5.33
2022-10-21T07:40:00.114Z,4.70
2022-10-21T07:42:29.518Z,4.67
2022-10-21T07:45:01.075Z,4.27
2022-10-21T07:47:29.048Z,4.50
2022-10-21T07:49:57.670Z,4.43
2022-10-21T07:52:25.710Z,3.67
2022-10-21T07:54:53.835Z,4.57
2022-10-21T07:57:23.232Z,4.50
2022-10-21T07:59:51.232Z,3.80
2022-10-21T08:02:19.162Z,4.37
2022-10-21T08:04:47.191Z,4.07
2022-10-21T08:07:15.186Z,3.80
2022-10-21T08:09:43.323Z,3.57
2022-10-21T08:12:14.462Z,3.63
2022-10-21T08:14:45.237Z,3.60
2022-10-21T08:17:13.184Z,3.20
2022-10-21T08:19:41.196Z,3.47
2022-10-21T08:22:09.258Z,3.47
2022-10-21T08:24:39.986Z,3.60
2022-10-21T08:27:10.274Z,3.93
2022-10-21T08:29:40.001Z,3.30
2022-10-21T08:32:09.726Z,3.87
2022-10-21T08:34:38.390Z,3.50
2022-10-21T08:37:06.337Z,3.43
2022-10-21T08:39:34.379Z,3.93
2022-10-21T08:42:13.596Z,3.80
2022-10-21T08:44:46.849Z,3.73
2022-10-21T08:47:31.745Z,3.70
2022-10-21T08:50:05.475Z,4.90
2022-10-21T08:52:40.996Z,4.10
2022-10-21T08:55:16.113Z,3.40
2022-10-21T08:57:44.268Z,3.73
2022-10-21T09:00:16.875Z,3.60
2022-10-21T09:03:13.471Z,3.47
2022-10-21T09:06:18.765Z,3.50
2022-10-21T09:09:00.621Z,2.80
2022-10-21T09:11:39.939Z,3.37
2022-10-21T09:14:34.767Z,3.30
2022-10-21T09:17:19.502Z,2.90
2022-10-21T09:19:56.234Z,2.67
2022-10-21T09:22:41.645Z,3.10
2022-10-21T09:25:20.751Z,2.60
2022-10-21T09:27:56.538Z,2.33
2022-10-21T09:30:26.204Z,2.33
2022-10-21T09:32:58.746Z,2.63
2022-10-21T09:35:34.682Z,2.90
2022-10-21T09:38:07.902Z,2.33
2022-10-21T09:40:36.013Z,2.30
2022-10-21T09:43:06.394Z,2.10
2022-10-21T09:45:36.582Z,2.13
2022-10-21T09:48:07.453Z,2.40
2022-10-21T09:50:40.767Z,1.80
2022-10-21T09:53:14.119Z,2.30
2022-10-21T09:55:44.485Z,2.00
2022-10-21T09:58:26.350Z,1.80
2022-10-21T10:00:55.253Z,2.20
2022-10-21T10:03:34.620Z,2.03
2022-10-21T10:06:05.587Z,2.10
2022-10-21T10:08:37.081Z,2.10
2022-10-21T10:11:17.608Z,2.30
2022-10-21T10:13:47.828Z,2.70
2022-10-21T10:16:26.178Z,2.50
2022-10-21T10:19:10.571Z,1.83
2022-10-21T10:21:39.913Z,1.97
2022-10-21T10:24:16.564Z,2.17
2022-10-21T10:26:44.917Z,1.80
2022-10-21T10:29:25.037Z,2.00
2022-10-21T10:31:57.571Z,2.00
2022-10-21T10:34:30.981Z,2.10
2022-10-21T10:37:05.602Z,2.10
2022-10-21T10:39:36.238Z,1.93
2022-10-21T10:42:05.255Z,2.10
2022-10-21T10:44:37.810Z,2.50
2022-10-21T10:47:09.068Z,2.00
2022-10-21T10:49:40.184Z,1.70
2022-10-21T10:52:21.495Z,1.87
2022-10-21T10:54:50.485Z,1.80
2022-10-21T10:57:30.844Z,2.33
2022-10-21T11:00:17.444Z,2.00
2022-10-21T11:02:52.226Z,2.13
2022-10-21T11:05:24.558Z,1.98
2022-10-21T11:07:56.592Z,2.35
2022-10-21T11:10:33.326Z,1.90
2022-10-21T11:13:02.708Z,2.05
2022-10-21T11:15:47.013Z,2.22
2022-10-21T11:18:24.417Z,1.80
2022-10-21T11:21:02.569Z,1.70
2022-10-21T11:24:03.732Z,2.03
2022-10-21T11:26:43.100Z,1.83
2022-10-21T11:29:26.289Z,1.80
2022-10-21T11:32:12.569Z,1.85
2022-10-21T11:34:51.610Z,1.70
2022-10-21T11:37:26.644Z,1.80
2022-10-21T11:40:04.303Z,1.42
2022-10-21T11:42:39.031Z,1.65
2022-10-21T11:45:37.691Z,1.50
2022-10-21T11:48:17.256Z,1.15
2022-10-21T11:50:56.211Z,1.55
2022-10-21T11:53:37.721Z,1.40
2022-10-21T11:56:21.211Z,1.33
2022-10-21T11:59:01.740Z,1.67
2022-10-21T12:01:45.271Z,1.40
2022-10-21T12:04:26.196Z,2.53
2022-10-21T12:07:11.201Z,1.98
2022-10-21T12:09:45.610Z,1.67
2022-10-21T12:12:17.818Z,1.50
2022-10-21T12:14:49.903Z,1.27
2022-10-21T12:17:20.876Z,1.27
2022-10-21T12:19:55.786Z,1.23
2022-10-21T12:22:27.116Z,1.25
2022-10-21T12:25:01.774Z,1.20
2022-10-21T12:27:40.914Z,1.23
2022-10-21T12:30:15.300Z,1.17
2022-10-21T12:32:51.113Z,1.27
2022-10-21T12:35:27.127Z,1.50
2022-10-21T12:38:21.981Z,1.30
2022-10-21T12:40:51.421Z,1.45
2022-10-21T12:43:27.323Z,1.33
2022-10-21T12:46:08.774Z,1.30
2022-10-21T12:48:40.519Z,0.88
2022-10-21T12:51:19.738Z,1.20
2022-10-21T12:56:31.447Z,1.20
2022-10-21T12:59:03.613Z,1.25
2022-10-21T13:01:38.934Z,0.85
2022-10-21T13:04:36.291Z,1.10
2022-10-21T13:07:05.215Z,1.10
2022-10-21T13:09:39.150Z,1.00
2022-10-21T13:12:29.923Z,1.33
2022-10-21T13:15:01.940Z,1.15
2022-10-21T13:17:51.340Z,1.23
2022-10-21T13:20:49.169Z,0.93
2022-10-21T13:23:38.390Z,0.93
2022-10-21T13:26:14.496Z,0.93
2022-10-21T13:28:42.994Z,1.15
2022-10-21T13:31:22.194Z,1.10
2022-10-21T13:33:54.390Z,0.80
2022-10-21T13:39:22.298Z,0.85
2022-10-21T13:41:59.771Z,1.00
2022-10-21T13:44:32.110Z,0.95
2022-10-21T13:47:19.781Z,0.90
2022-10-21T13:49:52.091Z,0.82
2022-10-21T13:52:20.131Z,1.17
2022-10-21T13:54:56.754Z,1.27
2022-10-21T13:57:24.838Z,0.77
2022-10-21T14:00:01.513Z,1.20
2022-10-21T14:02:33.358Z,1.27
2022-10-21T14:05:01.441Z,0.90
2022-10-21T14:07:29.891Z,1.13
2022-10-21T14:09:59.629Z,1.05
2022-10-21T14:12:30.797Z,0.98
2022-10-21T14:15:06.015Z,0.90
2022-10-21T14:17:39.411Z,1.05
2022-10-21T14:20:14.489Z,1.20
2022-10-21T14:22:42.905Z,1.05
2022-10-21T14:25:16.958Z,1.40
2022-10-21T14:27:47.224Z,1.10
2022-10-21T14:30:21.055Z,0.80
2022-10-21T14:32:51.655Z,1.30
2022-10-21T14:35:29.350Z,0.82
2022-10-21T14:37:58.705Z,1.27
2022-10-21T14:40:31.949Z,0.90
2022-10-21T14:43:02.024Z,0.93
2022-10-21T14:45:32.556Z,1.00
2022-10-21T14:48:09.960Z,1.42
2022-10-21T14:50:40.270Z,1.10
2022-10-21T14:53:16.420Z,1.27
2022-10-21T14:55:45.389Z,1.65
2022-10-21T14:58:23.074Z,1.35
2022-10-21T15:00:55.896Z,1.20
2022-10-21T15:03:42.765Z,1.80
2022-10-21T15:06:13.912Z,0.90
2022-10-21T15:08:43.553Z,1.08
2022-10-21T15:11:40.306Z,1.40
2022-10-21T15:14:19.437Z,1.43
2022-10-21T15:16:49.148Z,1.40
2022-10-21T15:19:21.705Z,1.53
2022-10-21T15:21:52.690Z,1.57
2022-10-21T15:24:24.460Z,1.40
2022-10-21T15:26:54.562Z,1.37
2022-10-21T15:29:29.105Z,1.33
2022-10-21T15:31:58.907Z,1.40
2022-10-21T15:34:28.881Z,1.63
2022-10-21T15:36:57.012Z,1.23
2022-10-21T15:39:24.994Z,1.73
2022-10-21T15:41:55.105Z,2.03
2022-10-21T15:44:26.600Z,2.03
2022-10-21T15:47:00.411Z,1.80
2022-10-21T15:49:33.593Z,1.83
2022-10-21T15:52:02.128Z,1.73
2022-10-21T15:54:30.278Z,1.67
2022-10-21T15:57:00.229Z,1.63
2022-10-21T15:59:29.833Z,2.03
2022-10-21T16:01:58.702Z,1.77
2022-10-21T16:04:27.835Z,2.00
2022-10-21T16:06:57.347Z,2.00
2022-10-21T16:09:28.027Z,2.00
2022-10-21T16:12:00.532Z,1.90
2022-10-21T16:14:30.685Z,2.10
2022-10-21T16:16:59.889Z,2.40
